Time;durP1;ratioP1;P1;durP2;ratioP2;P2;SDS_P1;SDS_P2;PMS_P1;PMS_P2;Temp;Humidity;BMP_temperature;BMP_pressure;BME280_temperature;BME280_humidity;BME280_pressure;Samples;Min_cycle;Max_cycle;Signal;HPM_P1;HPM_P2
2024/03/31 00:01:37;;;;;;;6.07;2.38;;;;;;;;;;6203043;23;20028;-67
2024/03/31 00:04:23;;;;;;;3.90;2.17;;;;;;;;;;6203300;23;20024;-67
2024/03/31 00:07:16;;;;;;;6.20;2.40;;;;;;;;;;6202883;23;20761;-67
2024/03/31 00:10:02;;;;;;;5.43;2.40;;;;;;;;;;6203257;23;20474;-59
2024/03/31 00:12:55;;;;;;;2.88;1.88;;;;;;;;;;6200061;23;20409;-61
2024/03/31 00:15:55;;;;;;;6.72;1.92;;;;;;;;;;6202966;23;20505;-61
2024/03/31 00:18:37;;;;;;;5.18;2.10;;;;;;;;;;6201913;23;20027;-61
2024/03/31 00:21:04;;;;;;;6.20;2.20;;;;;;;;;;6202051;23;20078;-61
2024/03/31 00:23:37;;;;;;;3.40;2.10;;;;;;;;;;6201562;23;20417;-61
2024/03/31 00:26:24;;;;;;;6.47;2.30;;;;;;;;;;6202270;23;20529;-57
2024/03/31 00:29:16;;;;;;;3.58;1.50;;;;;;;;;;6202845;23;20024;-58
2024/03/31 00:32:02;;;;;;;5.43;2.28;;;;;;;;;;6202482;23;20075;-58
2024/03/31 00:34:56;;;;;;;12.98;1.73;;;;;;;;;;6203545;23;20020;-56
2024/03/31 00:37:42;;;;;;;5.13;2.10;;;;;;;;;;6202942;23;20594;-50
2024/03/31 00:40:35;;;;;;;4.25;1.80;;;;;;;;;;6201411;23;20032;-60
2024/03/31 00:43:21;;;;;;;3.78;1.95;;;;;;;;;;6201632;23;20500;-60
2024/03/31 00:46:14;;;;;;;7.38;1.90;;;;;;;;;;6201934;23;20088;-59
2024/03/31 00:49:00;;;;;;;4.75;1.70;;;;;;;;;;6202882;23;20473;-58
2024/03/31 00:51:52;;;;;;;6.07;1.80;;;;;;;;;;6202149;23;20082;-58
2024/03/31 00:54:42;;;;;;;3.25;1.58;;;;;;;;;;6200896;23;20449;-60
2024/03/31 00:57:36;;;;;;;6.05;2.00;;;;;;;;;;6199934;23;20032;-51
2024/03/31 01:00:22;;;;;;;4.13;1.60;;;;;;;;;;6201500;23;20025;-51
2024/03/31 01:02:55;;;;;;;6.13;1.67;;;;;;;;;;6200982;23;20021;-49
2024/03/31 01:05:21;;;;;;;7.72;1.73;;;;;;;;;;6202832;23;20021;-60
2024/03/31 01:07:47;;;;;;;4.85;2.00;;;;;;;;;;6201720;23;20025;-48
2024/03/31 01:10:21;;;;;;;4.60;1.90;;;;;;;;;;6204112;23;20020;-59
2024/03/31 01:12:48;;;;;;;2.75;1.90;;;;;;;;;;6199847;23;20028;-58
2024/03/31 01:15:14;;;;;;;3.30;1.80;;;;;;;;;;6201234;23;20738;-56
2024/03/31 01:17:54;;;;;;;3.97;1.90;;;;;;;;;;6201253;23;20576;-58
2024/03/31 01:20:40;;;;;;;5.07;2.00;;;;;;;;;;6201281;23;20028;-58
2024/03/31 01:23:39;;;;;;;3.15;2.05;;;;;;;;;;6201961;23;20055;-65
2024/03/31 01:26:25;;;;;;;6.57;2.35;;;;;;;;;;6201411;23;20398;-66
2024/03/31 01:29:19;;;;;;;3.58;1.88;;;;;;;;;;6203492;23;20489;-66
2024/03/31 01:32:05;;;;;;;7.43;2.50;;;;;;;;;;6202239;23;20049;-65
2024/03/31 01:34:58;;;;;;;5.57;2.10;;;;;;;;;;6203064;23;20031;-65
2024/03/31 01:37:49;;;;;;;6.28;1.98;;;;;;;;;;6201932;23;20028;-47
2024/03/31 01:40:42;;;;;;;6.85;2.15;;;;;;;;;;6201687;23;20075;-48
2024/03/31 01:43:28;;;;;;;8.57;2.40;;;;;;;;;;6200530;23;20196;-50
2024/03/31 01:46:21;;;;;;;10.27;2.30;;;;;;;;;;6202197;23;20031;-51
2024/03/31 01:49:07;;;;;;;4.80;2.42;;;;;;;;;;6201472;23;20033;-53
2024/03/31 01:51:59;;;;;;;9.20;2.10;;;;;;;;;;6203569;23;20047;-68
2024/03/31 01:54:52;;;;;;;7.65;2.38;;;;;;;;;;6200920;23;20021;-68
2024/03/31 01:57:45;;;;;;;5.65;2.30;;;;;;;;;;6202461;23;20027;-68
2024/03/31 02:00:38;;;;;;;7.60;2.60;;;;;;;;;;6203147;23;20021;-68
2024/03/31 02:03:12;;;;;;;6.20;2.20;;;;;;;;;;6203801;23;20028;-59
2024/03/31 02:05:38;;;;;;;9.00;2.43;;;;;;;;;;6202233;23;20095;-58
2024/03/31 02:08:04;;;;;;;6.45;2.40;;;;;;;;;;6204416;23;20362;-58
2024/03/31 02:10:38;;;;;;;9.23;2.10;;;;;;;;;;6202810;23;20024;-60
2024/03/31 02:13:04;;;;;;;8.02;2.40;;;;;;;;;;6202744;23;20021;-57
2024/03/31 02:15:44;;;;;;;9.50;2.15;;;;;;;;;;6203115;23;20021;-59
2024/03/31 02:18:17;;;;;;;6.03;1.90;;;;;;;;;;6203194;23;20043;-59
2024/03/31 02:20:50;;;;;;;7.30;2.08;;;;;;;;;;6202595;23;20035;-58
2024/03/31 02:23:37;;;;;;;6.28;2.03;;;;;;;;;;6201889;23;20020;-58
2024/03/31 02:26:29;;;;;;;6.25;1.60;;;;;;;;;;6204070;23;20024;-57
2024/03/31 02:29:16;;;;;;;3.20;2.00;;;;;;;;;;6203864;23;20936;-60
2024/03/31 02:32:08;;;;;;;12.77;2.10;;;;;;;;;;6204433;23;20270;-48
2024/03/31 02:34:55;;;;;;;14.07;2.17;;;;;;;;;;6202033;23;20021;-55
2024/03/31 02:37:47;;;;;;;3.38;2.00;;;;;;;;;;6202262;23;20024;-57
2024/03/31 02:40:42;;;;;;;11.10;2.05;;;;;;;;;;6202872;23;20024;-57
2024/03/31 02:43:28;;;;;;;5.93;1.90;;;;;;;;;;6202993;23;20032;-58
2024/03/31 02:46:21;;;;;;;5.47;2.00;;;;;;;;;;6201466;23;20466;-54
2024/03/31 02:49:07;;;;;;;5.63;2.10;;;;;;;;;;6202979;23;20017;-58
2024/03/31 02:52:00;;;;;;;5.93;2.00;;;;;;;;;;6201755;23;20083;-58
2024/03/31 02:54:46;;;;;;;2.40;1.80;;;;;;;;;;6202475;23;20028;-57
2024/03/31 02:57:39;;;;;;;4.65;1.77;;;;;;;;;;6200751;23;20016;-58
2024/03/31 03:00:25;;;;;;;3.83;2.08;;;;;;;;;;6203115;23;20025;-52
2024/03/31 03:03:18;;;;;;;5.43;1.90;;;;;;;;;;6201585;23;20051;-59
2024/03/31 03:06:04;;;;;;;8.23;3.03;;;;;;;;;;6201683;23;20024;-59
2024/03/31 03:08:57;;;;;;;5.15;2.00;;;;;;;;;;6200925;23;20025;-58
2024/03/31 03:11:43;;;;;;;6.97;2.47;;;;;;;;;;6204102;23;20027;-60
2024/03/31 03:14:36;;;;;;;8.27;2.40;;;;;;;;;;6203544;23;20020;-59
2024/03/31 03:17:34;;;;;;;6.45;2.55;;;;;;;;;;6203713;23;20033;-49
2024/03/31 03:20:28;;;;;;;10.18;2.30;;;;;;;;;;6203905;23;20477;-51
2024/03/31 03:23:14;;;;;;;6.43;2.35;;;;;;;;;;6202545;23;20027;-55
2024/03/31 03:26:07;;;;;;;7.15;2.67;;;;;;;;;;6201840;23;20021;-50
2024/03/31 03:28:53;;;;;;;5.85;2.25;;;;;;;;;;6201672;23;20024;-64
2024/03/31 03:31:46;;;;;;;7.95;2.60;;;;;;;;;;6201255;23;20025;-61
2024/03/31 03:34:32;;;;;;;5.65;2.30;;;;;;;;;;6202741;23;20152;-61
2024/03/31 03:37:27;;;;;;;6.70;2.30;;;;;;;;;;6204093;23;20517;-61
2024/03/31 03:40:13;;;;;;;8.07;2.33;;;;;;;;;;6201949;23;20024;-61
2024/03/31 03:43:06;;;;;;;4.35;1.95;;;;;;;;;;6201204;23;20024;-61
2024/03/31 03:45:52;;;;;;;3.67;2.35;;;;;;;;;;6202530;23;20028;-54
2024/03/31 03:48:45;;;;;;;4.30;3.00;;;;;;;;;;6200464;23;20755;-54
2024/03/31 03:51:38;;;;;;;5.70;2.72;;;;;;;;;;6202581;23;20350;-55
2024/03/31 03:54:24;;;;;;;7.15;3.08;;;;;;;;;;6202092;23;20021;-49
2024/03/31 03:57:16;;;;;;;15.20;2.60;;;;;;;;;;6203146;23;20027;-60
2024/03/31 04:00:04;;;;;;;8.38;2.75;;;;;;;;;;6201887;23;20024;-66
2024/03/31 04:02:58;;;;;;;4.07;2.50;;;;;;;;;;6202028;23;20020;-66
2024/03/31 04:05:57;;;;;;;7.65;3.08;;;;;;;;;;6202938;23;20496;-66
2024/03/31 04:08:49;;;;;;;6.13;2.92;;;;;;;;;;6202480;23;20466;-66
2024/03/31 04:11:43;;;;;;;6.68;3.00;;;;;;;;;;6204086;23;20075;-66
2024/03/31 04:14:29;;;;;;;5.32;2.92;;;;;;;;;;6203356;23;20020;-59
2024/03/31 04:17:28;;;;;;;7.55;2.60;;;;;;;;;;6201808;23;20025;-59
2024/03/31 04:20:15;;;;;;;7.15;2.15;;;;;;;;;;6201222;23;20087;-59
2024/03/31 04:23:08;;;;;;;9.75;2.22;;;;;;;;;;6201942;23;20047;-58
2024/03/31 04:25:54;;;;;;;6.75;2.08;;;;;;;;;;6202055;23;20024;-60
2024/03/31 04:28:50;;;;;;;9.35;2.22;;;;;;;;;;6201501;23;20392;-49
2024/03/31 04:31:49;;;;;;;4.05;2.00;;;;;;;;;;6202330;23;20071;-52
2024/03/31 04:34:42;;;;;;;8.63;2.10;;;;;;;;;;6203490;23;20473;-51
2024/03/31 04:37:28;;;;;;;4.35;2.78;;;;;;;;;;6200810;23;20024;-54
2024/03/31 04:40:21;;;;;;;9.15;3.42;;;;;;;;;;6203096;23;20025;-52
2024/03/31 04:43:07;;;;;;;5.07;2.72;;;;;;;;;;6201458;23;20016;-58
2024/03/31 04:46:00;;;;;;;3.97;1.88;;;;;;;;;;6202339;23;20016;-58
2024/03/31 04:48:47;;;;;;;6.60;2.10;;;;;;;;;;6200800;23;20027;-59
2024/03/31 04:51:40;;;;;;;7.80;2.40;;;;;;;;;;6203016;23;20025;-58
2024/03/31 04:54:26;;;;;;;6.97;2.03;;;;;;;;;;6201258;23;20083;-53
2024/03/31 04:57:19;;;;;;;9.40;2.70;;;;;;;;;;6202407;23;20021;-46
2024/03/31 05:00:11;;;;;;;5.40;2.40;;;;;;;;;;6200916;23;20020;-48
2024/03/31 05:03:05;;;;;;;4.22;2.30;;;;;;;;;;6202198;23;20016;-53
2024/03/31 05:05:51;;;;;;;5.45;2.88;;;;;;;;;;6203150;23;20024;-52
2024/03/31 05:08:44;;;;;;;4.15;2.22;;;;;;;;;;6202022;23;20486;-50
2024/03/31 05:11:30;;;;;;;3.65;2.40;;;;;;;;;;6202880;23;20532;-66
2024/03/31 05:14:23;;;;;;;5.45;2.08;;;;;;;;;;6201306;23;20079;-65
2024/03/31 05:17:15;;;;;;;4.25;2.30;;;;;;;;;;6203075;23;20083;-65
2024/03/31 05:20:09;;;;;;;4.85;2.72;;;;;;;;;;6203255;23;20398;-65
2024/03/31 05:22:55;;;;;;;4.93;2.30;;;;;;;;;;6201840;23;20024;-50
2024/03/31 05:25:48;;;;;;;5.38;2.50;;;;;;;;;;6201438;23;20047;-51
2024/03/31 05:28:40;;;;;;;9.77;4.80;;;;;;;;;;6201856;23;20032;-50
2024/03/31 05:31:34;;;;;;;5.53;2.80;;;;;;;;;;6201002;23;20083;-52
2024/03/31 05:34:20;;;;;;;6.18;2.40;;;;;;;;;;6201914;23;20028;-47
2024/03/31 05:37:13;;;;;;;5.63;2.47;;;;;;;;;;6202543;23;20035;-51
2024/03/31 05:39:59;;;;;;;5.75;2.47;;;;;;;;;;6201898;23;20350;-57
2024/03/31 05:42:52;;;;;;;5.00;2.60;;;;;;;;;;6200791;23;20043;-58
2024/03/31 05:45:38;;;;;;;6.85;2.55;;;;;;;;;;6200225;23;20471;-59
2024/03/31 05:48:32;;;;;;;5.25;2.30;;;;;;;;;;6199571;23;20224;-59
2024/03/31 05:51:18;;;;;;;6.28;2.63;;;;;;;;;;6202447;23;20040;-58
2024/03/31 05:54:12;;;;;;;5.55;2.72;;;;;;;;;;6202310;23;20557;-59
2024/03/31 05:56:57;;;;;;;6.82;2.92;;;;;;;;;;6202161;23;20580;-59
2024/03/31 05:59:50;;;;;;;5.60;2.90;;;;;;;;;;6200789;23;20028;-58
2024/03/31 06:02:36;;;;;;;7.63;3.13;;;;;;;;;;6201143;23;20393;-59
2024/03/31 06:05:29;;;;;;;5.18;1.92;;;;;;;;;;6202196;23;20595;-59
2024/03/31 06:08:15;;;;;;;5.18;2.20;;;;;;;;;;6202913;23;20405;-64
2024/03/31 06:11:08;;;;;;;7.13;2.25;;;;;;;;;;6202686;23;20027;-64
2024/03/31 06:14:00;;;;;;;7.65;2.50;;;;;;;;;;6202430;23;20028;-64
2024/03/31 06:16:53;;;;;;;3.67;2.28;;;;;;;;;;6202001;23;20021;-64
2024/03/31 06:19:47;;;;;;;8.75;2.72;;;;;;;;;;6199829;23;20027;-64
2024/03/31 06:22:33;;;;;;;2.90;2.20;;;;;;;;;;6200188;23;20025;-66
2024/03/31 06:25:25;;;;;;;4.93;2.60;;;;;;;;;;6198400;23;20024;-68
2024/03/31 06:28:12;;;;;;;4.90;2.63;;;;;;;;;;6201685;23;20221;-68
2024/03/31 06:31:08;;;;;;;5.35;2.60;;;;;;;;;;6201986;23;20028;-69
2024/03/31 06:33:43;;;;;;;4.57;2.90;;;;;;;;;;6201372;23;20083;-69
2024/03/31 06:36:15;;;;;;;5.45;3.00;;;;;;;;;;6204418;23;20067;-64
2024/03/31 06:38:50;;;;;;;7.28;3.10;;;;;;;;;;6201787;23;20029;-64
2024/03/31 06:41:36;;;;;;;6.72;2.97;;;;;;;;;;6200905;23;20017;-65
2024/03/31 06:44:30;;;;;;;4.20;2.58;;;;;;;;;;6202478;23;20024;-64
2024/03/31 06:47:22;;;;;;;6.75;2.60;;;;;;;;;;6205405;23;20032;-55
2024/03/31 06:50:09;;;;;;;6.88;2.85;;;;;;;;;;6203334;23;20020;-68
2024/03/31 06:53:02;;;;;;;6.32;2.85;;;;;;;;;;6203351;23;20016;-68
2024/03/31 06:55:48;;;;;;;8.30;3.60;;;;;;;;;;6203568;23;20098;-68
2024/03/31 06:58:40;;;;;;;9.35;3.15;;;;;;;;;;6203932;23;20024;-69
2024/03/31 07:01:27;;;;;;;5.97;2.97;;;;;;;;;;6202607;23;20020;-70
2024/03/31 07:04:19;;;;;;;4.95;2.58;;;;;;;;;;6203456;23;20028;-68
2024/03/31 07:07:06;;;;;;;7.78;3.05;;;;;;;;;;6202756;23;20020;-55
2024/03/31 07:09:58;;;;;;;5.68;3.00;;;;;;;;;;6204127;23;20017;-58
2024/03/31 07:12:45;;;;;;;6.88;3.40;;;;;;;;;;6203393;23;20020;-54
2024/03/31 07:15:44;;;;;;;8.45;4.55;;;;;;;;;;6202963;23;20071;-55
2024/03/31 07:18:37;;;;;;;16.20;8.90;;;;;;;;;;6208255;23;20020;-59
2024/03/31 07:21:30;;;;;;;13.75;7.88;;;;;;;;;;6209631;23;20016;-58
2024/03/31 07:24:23;;;;;;;13.13;7.30;;;;;;;;;;6208039;23;20039;-50
2024/03/31 07:27:09;;;;;;;10.88;5.43;;;;;;;;;;6208022;23;20031;-51
2024/03/31 07:30:02;;;;;;;14.32;4.70;;;;;;;;;;6207948;23;20027;-54
2024/03/31 07:32:48;;;;;;;5.90;3.53;;;;;;;;;;6205037;23;20023;-49
2024/03/31 07:35:41;;;;;;;8.35;3.75;;;;;;;;;;6205658;23;20028;-65
2024/03/31 07:38:27;;;;;;;5.35;3.15;;;;;;;;;;6205522;23;20517;-64
2024/03/31 07:41:20;;;;;;;12.77;4.18;;;;;;;;;;6207499;23;20027;-64
2024/03/31 07:43:48;;;;;;;8.02;3.78;;;;;;;;;;6202937;23;20028;-64
2024/03/31 07:46:14;;;;;;;7.13;3.70;;;;;;;;;;6204773;23;20031;-63
2024/03/31 07:49:07;;;;;;;7.28;3.78;;;;;;;;;;6204141;23;20020;-64
2024/03/31 07:51:53;;;;;;;7.35;3.88;;;;;;;;;;6203818;23;20340;-68
2024/03/31 07:54:46;;;;;;;7.30;3.53;;;;;;;;;;6204285;23;20020;-59
2024/03/31 07:57:32;;;;;;;6.00;3.78;;;;;;;;;;6206987;23;20024;-61
2024/03/31 08:00:25;;;;;;;10.05;3.70;;;;;;;;;;6206603;23;20031;-61
2024/03/31 08:03:13;;;;;;;10.88;3.67;;;;;;;;;;6208413;23;20031;-61
2024/03/31 08:06:04;;;;;;;6.68;3.50;;;;;;;;;;6207357;23;20468;-61
2024/03/31 08:08:56;;;;;;;7.63;2.90;;;;;;;;;;6208065;23;20093;-61
2024/03/31 08:11:50;;;;;;;9.18;3.50;;;;;;;;;;6207593;23;20078;-61
2024/03/31 08:14:36;;;;;;;9.40;3.55;;;;;;;;;;6206245;23;20357;-68
2024/03/31 08:17:35;;;;;;;6.43;3.13;;;;;;;;;;6202192;23;20024;-68
2024/03/31 08:20:21;;;;;;;7.35;3.22;;;;;;;;;;6202739;23;20020;-68
2024/03/31 08:23:15;;;;;;;7.90;3.13;;;;;;;;;;6202057;23;20079;-68
2024/03/31 08:26:14;;;;;;;8.65;3.30;;;;;;;;;;6203290;23;20102;-68
2024/03/31 08:29:01;;;;;;;5.50;2.78;;;;;;;;;;6202667;23;20024;-68
2024/03/31 08:31:53;;;;;;;6.32;3.00;;;;;;;;;;6201939;23;20025;-65
2024/03/31 08:34:40;;;;;;;8.07;3.28;;;;;;;;;;6201770;23;20356;-68
2024/03/31 08:37:33;;;;;;;8.30;2.70;;;;;;;;;;6202357;23;20035;-68
2024/03/31 08:40:19;;;;;;;6.18;3.30;;;;;;;;;;6202242;23;20462;-66
2024/03/31 08:43:12;;;;;;;7.60;3.67;;;;;;;;;;6202027;23;20024;-67
2024/03/31 08:46:08;;;;;;;9.02;3.70;;;;;;;;;;6201803;23;20506;-67
2024/03/31 08:48:54;;;;;;;9.07;3.78;;;;;;;;;;6201932;23;20016;-56
2024/03/31 08:51:51;;;;;;;12.02;4.60;;;;;;;;;;6201050;23;20032;-51
2024/03/31 08:54:38;;;;;;;8.57;4.68;;;;;;;;;;6202095;23;20021;-52
2024/03/31 08:57:32;;;;;;;9.15;4.82;;;;;;;;;;6203844;23;20020;-50
2024/03/31 09:00:18;;;;;;;9.02;4.93;;;;;;;;;;6198131;23;20032;-53
2024/03/31 09:03:11;;;;;;;8.35;3.42;;;;;;;;;;6201167;23;20032;-49
2024/03/31 09:06:04;;;;;;;7.50;3.47;;;;;;;;;;6200657;23;20024;-58
2024/03/31 09:09:00;;;;;;;6.63;3.38;;;;;;;;;;6203469;23;20067;-59
2024/03/31 09:11:53;;;;;;;5.90;3.38;;;;;;;;;;6202031;23;20035;-59
2024/03/31 09:14:39;;;;;;;12.82;4.07;;;;;;;;;;6201819;23;20441;-59
2024/03/31 09:17:40;;;;;;;12.82;4.38;;;;;;;;;;6197803;23;20083;-59
2024/03/31 09:20:27;;;;;;;9.32;4.53;;;;;;;;;;6201435;23;20496;-59
2024/03/31 09:23:26;;;;;;;9.05;4.13;;;;;;;;;;6197745;23;20527;-59
2024/03/31 09:26:13;;;;;;;9.82;4.43;;;;;;;;;;6200972;23;20362;-54
2024/03/31 09:29:06;;;;;;;6.40;3.80;;;;;;;;;;6201289;23;20433;-49
2024/03/31 09:31:52;;;;;;;9.65;4.03;;;;;;;;;;6200758;23;20374;-48
2024/03/31 09:34:46;;;;;;;8.20;3.88;;;;;;;;;;6201729;23;20071;-46
2024/03/31 09:37:40;;;;;;;9.23;4.28;;;;;;;;;;6200601;23;20024;-46
2024/03/31 09:40:26;;;;;;;11.50;5.28;;;;;;;;;;6201644;23;20067;-49
2024/03/31 09:43:20;;;;;;;7.63;4.28;;;;;;;;;;6201260;23;20024;-59
2024/03/31 09:46:07;;;;;;;8.82;5.30;;;;;;;;;;6200689;23;20031;-59
2024/03/31 09:49:03;;;;;;;12.27;4.78;;;;;;;;;;6199810;23;20071;-59
2024/03/31 09:51:59;;;;;;;8.57;4.40;;;;;;;;;;6201191;23;20027;-59
2024/03/31 09:54:58;;;;;;;9.18;4.60;;;;;;;;;;6200953;23;20020;-60
2024/03/31 09:57:48;;;;;;;12.02;4.25;;;;;;;;;;6201317;23;20348;-60
2024/03/31 10:00:41;;;;;;;10.40;3.60;;;;;;;;;;6201132;23;20021;-65
2024/03/31 10:03:30;;;;;;;10.70;3.92;;;;;;;;;;6199551;23;20025;-61
2024/03/31 10:06:22;;;;;;;9.75;4.00;;;;;;;;;;6196193;23;20074;-51
2024/03/31 10:09:08;;;;;;;9.25;4.18;;;;;;;;;;6199134;23;20029;-52
2024/03/31 10:12:01;;;;;;;11.63;3.92;;;;;;;;;;6200096;23;20466;-50
2024/03/31 10:15:02;;;;;;;11.63;3.78;;;;;;;;;;6196974;23;20418;-50
2024/03/31 10:18:05;;;;;;;15.15;4.55;;;;;;;;;;6201581;23;20067;-52
2024/03/31 10:20:57;;;;;;;10.57;4.80;;;;;;;;;;6200926;23;20032;-61
2024/03/31 10:23:53;;;;;;;8.50;4.57;;;;;;;;;;6202247;23;20021;-65
2024/03/31 10:26:39;;;;;;;8.57;4.75;;;;;;;;;;6200821;23;20462;-65
2024/03/31 10:29:32;;;;;;;11.35;4.47;;;;;;;;;;6199765;23;20075;-66
2024/03/31 10:32:18;;;;;;;10.70;4.78;;;;;;;;;;6198247;23;20021;-66
2024/03/31 10:35:11;;;;;;;15.30;5.10;;;;;;;;;;6201992;23;20040;-66
2024/03/31 10:38:04;;;;;;;14.55;5.15;;;;;;;;;;6202195;23;20021;-50
2024/03/31 10:40:50;;;;;;;9.68;4.60;;;;;;;;;;6200316;23;20025;-50
2024/03/31 10:43:44;;;;;;;19.08;7.28;;;;;;;;;;6202229;23;20029;-50
2024/03/31 10:46:33;;;;;;;20.73;7.10;;;;;;;;;;6203514;23;20074;-50
2024/03/31 10:49:55;;;;;;;26.40;7.88;;;;;;;;;;6200821;23;20028;-53
2024/03/31 10:52:42;;;;;;;23.83;7.43;;;;;;;;;;6174980;23;20047;-49
2024/03/31 10:55:35;;;;;;;24.35;7.88;;;;;;;;;;6201900;23;20024;-56
2024/03/31 10:58:22;;;;;;;14.43;7.95;;;;;;;;;;6199265;23;20031;-52
2024/03/31 11:01:18;;;;;;;30.27;14.80;;;;;;;;;;6200823;23;20020;-60
2024/03/31 11:04:18;;;;;;;21.58;11.68;;;;;;;;;;6200737;23;20474;-60
2024/03/31 11:07:12;;;;;;;18.83;9.65;;;;;;;;;;6199378;23;20021;-60
2024/03/31 11:09:58;;;;;;;26.05;9.75;;;;;;;;;;6202477;23;20417;-60
2024/03/31 11:12:51;;;;;;;21.20;9.18;;;;;;;;;;6198455;23;20436;-60
2024/03/31 11:15:39;;;;;;;22.38;9.43;;;;;;;;;;6200867;23;20031;-60
2024/03/31 11:18:38;;;;;;;20.13;8.90;;;;;;;;;;6202410;23;20035;-60
2024/03/31 11:21:31;;;;;;;22.05;9.25;;;;;;;;;;6202079;23;20020;-60
2024/03/31 11:24:25;;;;;;;28.10;9.93;;;;;;;;;;6203550;23;20031;-60
2024/03/31 11:27:19;;;;;;;24.15;9.15;;;;;;;;;;6205318;23;20020;-60
2024/03/31 11:30:05;;;;;;;18.20;8.23;;;;;;;;;;6205405;23;20478;-59
2024/03/31 11:33:01;;;;;;;19.48;8.27;;;;;;;;;;6207785;23;20016;-60
2024/03/31 11:35:45;;;;;;;16.65;7.45;;;;;;;;;;6206121;23;20078;-50
2024/03/31 11:38:38;;;;;;;17.17;7.70;;;;;;;;;;6204247;23;20020;-53
2024/03/31 11:41:25;;;;;;;24.73;7.55;;;;;;;;;;6204815;23;20043;-54
2024/03/31 11:44:18;;;;;;;18.20;7.90;;;;;;;;;;6205230;23;20024;-49
2024/03/31 11:47:12;;;;;;;24.88;8.98;;;;;;;;;;6203298;23;20177;-51
2024/03/31 11:49:58;;;;;;;21.70;9.27;;;;;;;;;;6203429;23;20394;-46
2024/03/31 11:52:51;;;;;;;22.08;10.27;;;;;;;;;;6203254;23;20408;-57
2024/03/31 11:55:40;;;;;;;19.48;9.27;;;;;;;;;;6205971;23;20020;-57
2024/03/31 11:58:36;;;;;;;25.45;9.75;;;;;;;;;;6206421;23;20020;-56
2024/03/31 12:01:24;;;;;;;27.02;9.20;;;;;;;;;;6207285;23;20020;-56
2024/03/31 12:04:16;;;;;;;30.90;11.25;;;;;;;;;;6205815;23;20346;-56
2024/03/31 12:07:02;;;;;;;20.95;10.32;;;;;;;;;;6204759;23;20457;-58
2024/03/31 12:09:56;;;;;;;25.13;10.80;;;;;;;;;;6205610;23;20024;-62
2024/03/31 12:12:43;;;;;;;24.55;11.63;;;;;;;;;;6204095;23;20024;-46
2024/03/31 12:15:36;;;;;;;21.92;11.15;;;;;;;;;;6202815;23;20536;-51
2024/03/31 12:18:28;;;;;;;27.27;11.63;;;;;;;;;;6199072;23;20455;-52
2024/03/31 12:21:22;;;;;;;23.48;11.63;;;;;;;;;;6197188;23;20027;-50
2024/03/31 12:24:15;;;;;;;24.85;11.77;;;;;;;;;;6195728;23;20341;-51
2024/03/31 12:27:08;;;;;;;30.90;12.60;;;;;;;;;;6198658;23;20024;-55
2024/03/31 12:29:54;;;;;;;27.50;11.80;;;;;;;;;;6197184;23;20021;-49
2024/03/31 12:32:47;;;;;;;25.20;10.88;;;;;;;;;;6197847;23;20016;-54
2024/03/31 12:35:33;;;;;;;25.20;11.45;;;;;;;;;;6198620;23;20024;-51
2024/03/31 12:38:26;;;;;;;29.08;12.35;;;;;;;;;;6199049;23;20539;-50
2024/03/31 12:41:15;;;;;;;26.35;12.50;;;;;;;;;;6198298;23;20031;-49
2024/03/31 12:44:09;;;;;;;23.48;12.18;;;;;;;;;;6199589;23;20075;-53
2024/03/31 12:46:55;;;;;;;23.58;12.23;;;;;;;;;;6199802;23;20020;-50
2024/03/31 12:49:48;;;;;;;28.77;12.68;;;;;;;;;;6197831;23;20024;-60
2024/03/31 12:52:35;;;;;;;24.20;12.45;;;;;;;;;;6199434;23;20024;-60
2024/03/31 12:55:27;;;;;;;25.08;11.43;;;;;;;;;;6200830;23;20024;-60
2024/03/31 12:58:13;;;;;;;27.50;12.20;;;;;;;;;;6203570;23;20024;-60
2024/03/31 13:01:06;;;;;;;25.67;12.20;;;;;;;;;;6202146;23;20040;-60
2024/03/31 13:03:53;;;;;;;21.92;11.63;;;;;;;;;;6197975;23;20017;-60
2024/03/31 13:06:45;;;;;;;24.63;11.85;;;;;;;;;;6197129;23;20024;-51
2024/03/31 13:09:31;;;;;;;20.40;10.85;;;;;;;;;;6200800;23;20025;-60
2024/03/31 13:12:24;;;;;;;27.83;11.98;;;;;;;;;;6199813;23;20032;-60
2024/03/31 13:15:17;;;;;;;28.65;13.18;;;;;;;;;;6201015;23;20024;-60
2024/03/31 13:18:09;;;;;;;27.67;15.00;;;;;;;;;;6196634;23;20028;-60
2024/03/31 13:21:02;;;;;;;29.05;13.55;;;;;;;;;;6198069;23;20025;-60
2024/03/31 13:23:48;;;;;;;29.85;13.18;;;;;;;;;;6198037;23;20406;-66
2024/03/31 13:26:41;;;;;;;26.25;12.93;;;;;;;;;;6197741;23;20020;-66
2024/03/31 13:29:27;;;;;;;28.38;12.45;;;;;;;;;;6200139;23;20020;-66
2024/03/31 13:32:20;;;;;;;22.92;12.45;;;;;;;;;;6200399;23;20021;-66
2024/03/31 13:35:08;;;;;;;30.13;12.63;;;;;;;;;;6200666;23;20020;-66
2024/03/31 13:37:59;;;;;;;28.45;12.23;;;;;;;;;;6201759;23;20454;-66
2024/03/31 13:40:45;;;;;;;28.70;12.48;;;;;;;;;;6200487;23;20039;-66
2024/03/31 13:43:38;;;;;;;26.38;12.77;;;;;;;;;;6202244;23;20021;-49
2024/03/31 13:46:31;;;;;;;26.70;12.38;;;;;;;;;;6199882;23;20371;-48
2024/03/31 13:49:17;;;;;;;25.13;11.93;;;;;;;;;;6200955;23;20024;-51
2024/03/31 13:52:10;;;;;;;24.45;12.25;;;;;;;;;;6204015;23;20504;-50
2024/03/31 13:54:56;;;;;;;20.90;12.50;;;;;;;;;;6201103;23;20021;-55
2024/03/31 13:57:49;;;;;;;25.77;12.00;;;;;;;;;;6202916;23;20473;-51
2024/03/31 14:00:35;;;;;;;28.33;11.52;;;;;;;;;;6203264;23;20075;-66
2024/03/31 14:03:28;;;;;;;25.75;12.43;;;;;;;;;;6203465;23;20024;-57
2024/03/31 14:06:14;;;;;;;26.00;12.32;;;;;;;;;;6202586;23;20054;-58
2024/03/31 14:09:07;;;;;;;31.40;13.38;;;;;;;;;;6203050;23;20016;-57
2024/03/31 14:11:53;;;;;;;27.45;11.90;;;;;;;;;;6203170;23;20074;-57
2024/03/31 14:14:50;;;;;;;24.48;10.88;;;;;;;;;;6204353;23;20615;-59
2024/03/31 14:17:42;;;;;;;23.42;12.02;;;;;;;;;;6200320;23;20031;-57
2024/03/31 14:20:36;;;;;;;23.90;11.10;;;;;;;;;;6194259;23;20091;-62
2024/03/31 14:23:22;;;;;;;26.90;12.00;;;;;;;;;;6201556;23;20016;-67
2024/03/31 14:26:15;;;;;;;25.08;11.82;;;;;;;;;;6202720;23;20028;-66
2024/03/31 14:29:02;;;;;;;22.90;11.77;;;;;;;;;;6203808;23;20016;-67
2024/03/31 14:31:55;;;;;;;23.35;11.98;;;;;;;;;;6203580;23;20028;-66
2024/03/31 14:34:41;;;;;;;24.95;11.88;;;;;;;;;;6203465;23;20040;-67
2024/03/31 14:37:34;;;;;;;23.30;11.55;;;;;;;;;;6202840;23;20373;-56
2024/03/31 14:40:20;;;;;;;22.00;11.65;;;;;;;;;;6203537;23;20075;-55
2024/03/31 14:43:13;;;;;;;22.23;11.60;;;;;;;;;;6203765;23;20807;-54
2024/03/31 14:46:06;;;;;;;23.48;11.18;;;;;;;;;;6202603;23;20043;-55
2024/03/31 14:48:52;;;;;;;23.77;10.88;;;;;;;;;;6203979;23;20044;-55
2024/03/31 14:51:46;;;;;;;22.83;11.57;;;;;;;;;;6202344;23;20232;-53
2024/03/31 14:54:38;;;;;;;22.13;10.38;;;;;;;;;;6202735;23;20028;-67
2024/03/31 14:57:31;;;;;;;24.30;11.57;;;;;;;;;;6204121;23;20046;-62
2024/03/31 15:00:17;;;;;;;24.70;11.88;;;;;;;;;;6204304;23;20036;-63
2024/03/31 15:03:11;;;;;;;24.88;11.18;;;;;;;;;;6202369;23;20017;-63
2024/03/31 15:05:57;;;;;;;20.33;11.00;;;;;;;;;;6201637;23;20262;-63
2024/03/31 15:08:50;;;;;;;26.95;11.07;;;;;;;;;;6201251;23;20035;-62
2024/03/31 15:11:36;;;;;;;22.88;10.43;;;;;;;;;;6202860;23;20021;-63
2024/03/31 15:14:29;;;;;;;24.10;11.80;;;;;;;;;;6202406;23;20480;-66
2024/03/31 15:17:21;;;;;;;23.80;11.00;;;;;;;;;;6200847;23;20035;-58
2024/03/31 15:20:20;;;;;;;22.30;10.65;;;;;;;;;;6201798;23;20021;-59
2024/03/31 15:23:07;;;;;;;24.50;12.20;;;;;;;;;;6201388;23;20082;-58
2024/03/31 15:26:00;;;;;;;23.98;10.70;;;;;;;;;;6203405;23;20031;-59
2024/03/31 15:28:46;;;;;;;22.98;10.05;;;;;;;;;;6203897;23;20025;-58
2024/03/31 15:31:39;;;;;;;19.90;10.10;;;;;;;;;;6202233;23;20020;-61
2024/03/31 15:34:25;;;;;;;27.92;11.18;;;;;;;;;;6203912;23;20448;-61
2024/03/31 15:37:18;;;;;;;24.33;10.13;;;;;;;;;;6203088;23;20358;-61
2024/03/31 15:40:11;;;;;;;31.92;9.85;;;;;;;;;;6202031;23;20288;-61
2024/03/31 15:43:04;;;;;;;24.17;10.57;;;;;;;;;;6203125;23;20429;-61
2024/03/31 15:45:54;;;;;;;24.30;10.52;;;;;;;;;;6202138;23;20028;-60
2024/03/31 15:48:49;;;;;;;20.35;9.98;;;;;;;;;;6203520;23;20016;-61
2024/03/31 15:51:35;;;;;;;22.02;10.25;;;;;;;;;;6203739;23;20370;-61
2024/03/31 15:54:28;;;;;;;20.92;9.75;;;;;;;;;;6201874;23;20028;-61
2024/03/31 15:57:14;;;;;;;28.13;11.27;;;;;;;;;;6202993;23;20032;-61
2024/03/31 16:00:09;;;;;;;23.58;11.45;;;;;;;;;;6202636;23;20017;-61
2024/03/31 16:02:53;;;;;;;27.35;12.63;;;;;;;;;;6201902;23;20039;-60
2024/03/31 16:05:46;;;;;;;24.23;11.57;;;;;;;;;;6201970;23;20478;-61
2024/03/31 16:08:43;;;;;;;23.30;10.45;;;;;;;;;;6201049;23;20028;-61
2024/03/31 16:11:30;;;;;;;28.60;10.27;;;;;;;;;;6201950;23;20020;-61
2024/03/31 16:14:23;;;;;;;32.10;10.50;;;;;;;;;;6202561;23;20024;-61
2024/03/31 16:17:15;;;;;;;20.67;9.18;;;;;;;;;;6201216;23;20060;-61
2024/03/31 16:20:09;;;;;;;18.27;9.48;;;;;;;;;;6200316;23;20091;-60
2024/03/31 16:22:36;;;;;;;19.15;9.73;;;;;;;;;;6200643;23;20716;-61
2024/03/31 16:25:02;;;;;;;18.88;9.80;;;;;;;;;;6201581;23;20028;-61
2024/03/31 16:27:35;;;;;;;21.00;10.25;;;;;;;;;;6202169;23;20024;-60
2024/03/31 16:30:02;;;;;;;29.20;13.77;;;;;;;;;;6200961;23;20047;-60
2024/03/31 16:32:28;;;;;;;28.38;14.93;;;;;;;;;;6202271;23;20636;-49
2024/03/31 16:35:01;;;;;;;46.75;26.42;;;;;;;;;;6203494;23;20031;-52
2024/03/31 16:37:47;;;;;;;38.53;22.52;;;;;;;;;;6201030;23;20361;-49
2024/03/31 16:40:40;;;;;;;23.67;14.00;;;;;;;;;;6202501;23;20016;-48
2024/03/31 16:43:26;;;;;;;23.38;13.68;;;;;;;;;;6201389;23;20024;-48